Medford, Oregon
Current Conditions -  °F | °C
As of 4:03 AM on Friday 24 Oct 2014 (Local Time) from KMFR Reporting Station
Light Rain Light Rain  
Wind Chill: 53°   Ceiling: 7500
Heat Index: 53°   Visibility: 9mi
Dew Point: 52°   Wind: 0mph
Humidity: 96%   Direction: NA
Pressure: 30"   Gusts: NA
Location:  42.32°N, 122.88°W
Report Text: KMFR 241103Z AUTO 00000KT 9SM -RA SCT010 BKN075 OVC090 12/11 A3000 RMK AO2 P0001 T01170111
Loading
Personal Weather Stations






























Interactive Weather Map
Tropical Storm Tracking
New forecast layout! Learn more

10-Day Weather Forecast

Advertisements
Track Severe Weather on mobile